Palmer, AK (99645)

7:10 AM AKDT on July 29, 2016 (GMT -0800)
Cedar Hills | | Change Station

Elev 500 ft 61.62 °N, 149.12 °W | Updated 5 minutes ago

Overcast
Overcast
54.7 °F
Feels Like 54.7 °F
N
3.2
Wind Variable Wind from East

Today
High -- | Low -- °F
--% Chance of Precip.
Yesterday
High -- | Low -- °F
Precip. -- in
Pressure 30.04 in
Visibility 10.0 miles
Clouds Overcast 7000 ft
Dew Point 47 °F
Humidity 76%
Rainfall 0.00 in
Snow Depth Not available.
5:19 AM 10:44 PM
Waning Crescent, 21% visible
METAR PAAQ 291453Z AUTO 08005KT 10SM OVC070 14/07 A3003 RMK AO2 SLP171 T01390067 53002 TSNO
Pressure 30.04 in
Visibility 10.0 miles
Clouds Overcast 7000 ft
Dew Point 47 °F
Humidity 76%
Rainfall 0.00 in
Snow Depth Not available.
5:19 AM 10:44 PM
Waning Crescent, 21% visible
METAR PAAQ 291453Z AUTO 08005KT 10SM OVC070 14/07 A3003 RMK AO2 SLP171 T01390067 53002 TSNO

10-Day Weather Forecast

Almanac

Astronomy

Jul. 29, 2016 Rise Set
Actual Time
Civil Twilight
Nautical Twilight
Astronomical Twilight
Moon
Length of Visible Light
Length of Day
Tomorrow will be .
, % of the Moon is Illuminated

Today's Extremes

State Highs State Lows

Community

WunderPhotos

Upload Photos

1,928,345 photos uploaded!

WunderBlog® & News

Nearby

Air Quality

  Air Quality AQ Index Pollutant
Not available.

Snow Depth

Station Depth Elevation

Earthquake Activity

City Distance Mag. Time & Date
Minimum magnitude displayed is 2.5.

Coastal Water Temperatures

Place Temperature

Stations

Nearby Weather Stations

Station Location Temp. Windchill Dew Point Humidity Wind Precip. Elev Updated Type
                   

Watches & Warnings

There are currently no watches in effect.